createdAt,value
2022-08-11T00:00:21.135Z,99668.75
2022-08-11T00:03:12.064Z,99664.38
2022-08-11T00:05:57.974Z,99671.97
2022-08-11T00:08:50.414Z,99670.41
2022-08-11T00:11:39.686Z,99670.41
2022-08-11T00:14:37.266Z,99667.97
2022-08-11T00:17:27.998Z,99667.63
2022-08-11T00:20:16.919Z,99676.03
2022-08-11T00:23:07.562Z,99683.63
2022-08-11T00:25:53.922Z,99676.47
2022-08-11T00:28:39.358Z,99680.47
2022-08-11T00:31:31.831Z,99681.25
2022-08-11T00:34:21.343Z,99686.47
2022-08-11T00:37:12.154Z,99688.44
2022-08-11T00:39:59.011Z,99685.28
2022-08-11T00:43:07.601Z,99690.06
2022-08-11T00:46:12.517Z,99687.28
2022-08-11T00:48:58.046Z,99679.34
2022-08-11T00:52:03.937Z,99686.13
2022-08-11T00:55:07.446Z,99678.19
2022-08-11T00:58:22.489Z,99681.78
2022-08-11T01:01:16.905Z,99679.75
2022-08-11T01:04:31.223Z,99677.75
2022-08-11T01:08:02.071Z,99675.41
2022-08-11T01:10:45.494Z,99682.13
2022-08-11T01:14:05.466Z,99675.78
2022-08-11T01:17:02.805Z,99679.75
2022-08-11T01:20:46.149Z,99670.63
2022-08-11T01:23:54.815Z,99672.63
2022-08-11T01:26:40.323Z,99673.41
2022-08-11T01:29:56.607Z,99684.91
2022-08-11T01:33:03.715Z,99678.19
2022-08-11T01:36:10.866Z,99674.19
2022-08-11T01:39:41.165Z,99675.78
2022-08-11T01:43:14.720Z,99681.78
2022-08-11T01:46:07.308Z,99678.63
2022-08-11T01:50:05.145Z,99681.41
2022-08-11T01:52:40.837Z,99667.88
2022-08-11T01:55:43.897Z,99665.91
2022-08-11T01:58:54.226Z,99662.75
2022-08-11T02:02:06.619Z,99670.31
2022-08-11T02:04:59.800Z,99669.53
2022-08-11T02:08:11.750Z,99664.75
2022-08-11T02:11:35.333Z,99669.53
2022-08-11T02:14:32.481Z,99664.38
2022-08-11T02:17:41.654Z,99663.19
2022-08-11T02:20:54.014Z,99672.75
2022-08-11T02:24:05.324Z,99669.94
2022-08-11T02:27:05.095Z,99668.75
2022-08-11T02:30:07.463Z,99669.94
2022-08-11T02:33:25.595Z,99672.75
2022-08-11T02:36:22.178Z,99670.41
2022-08-11T02:39:11.413Z,99663.22
2022-08-11T02:42:33.455Z,99672.41
2022-08-11T02:45:27.722Z,99666.47
2022-08-11T02:49:06.819Z,99673.59
2022-08-11T02:52:11.081Z,99669.25
2022-08-11T02:55:48.030Z,99672.81
2022-08-11T02:58:41.578Z,99657.75
2022-08-11T03:01:41.071Z,99660.09
2022-08-11T03:04:59.047Z,99664.09
2022-08-11T03:08:02.848Z,99678.03
2022-08-11T03:11:23.457Z,99684.03
2022-08-11T03:14:49.996Z,99674.88
2022-08-11T03:17:47.454Z,99684.47
2022-08-11T03:20:46.169Z,99689.59
2022-08-11T03:23:47.940Z,99682.47
2022-08-11T03:26:49.164Z,99682.47
2022-08-11T03:29:44.710Z,99686.47
2022-08-11T03:32:37.880Z,99682.91
2022-08-11T03:35:23.159Z,99684.03
2022-08-11T03:38:15.959Z,99680.09
2022-08-11T03:42:02.464Z,99673.75
2022-08-11T03:45:08.539Z,99686.09
2022-08-11T03:48:12.139Z,99683.31
2022-08-11T03:51:25.321Z,99683.31
2022-08-11T03:54:48.447Z,99691.69
2022-08-11T03:58:25.233Z,99683.31
2022-08-11T04:02:01.549Z,99680.97
2022-08-11T04:04:55.966Z,99680.19
2022-08-11T04:08:12.097Z,99680.19
2022-08-11T04:11:12.250Z,99677.41
2022-08-11T04:14:50.492Z,99680.19
2022-08-11T04:18:16.480Z,99673.03
2022-08-11T04:21:12.924Z,99671.47
2022-08-11T04:24:33.278Z,99673.81
2022-08-11T04:27:19.263Z,99666.25
2022-08-11T04:30:12.317Z,99671.47
2022-08-11T04:33:19.237Z,99679.81
2022-08-11T04:36:42.927Z,99665.09
2022-08-11T04:40:03.914Z,99664.31
2022-08-11T04:43:23.014Z,99680.25
2022-08-11T04:46:23.685Z,99681.81
2022-08-11T04:49:52.930Z,99681.81
2022-08-11T04:53:05.908Z,99677.47
2022-08-11T04:56:22.240Z,99683.44
2022-08-11T04:59:32.260Z,99675.09
2022-08-11T05:02:36.078Z,99672.66
2022-08-11T05:06:06.425Z,99672.66
2022-08-11T05:09:10.433Z,99671.53
2022-08-11T05:12:12.429Z,99669.09
2022-08-11T05:15:19.326Z,99677.88
2022-08-11T05:18:33.327Z,99674.31
2022-08-11T05:21:44.442Z,99677.09
2022-08-11T05:24:55.988Z,99679.88
2022-08-11T05:28:10.291Z,99687.47
2022-08-11T05:31:24.756Z,99682.66
2022-08-11T05:34:28.613Z,99681.88
2022-08-11T05:37:33.260Z,99683.91
2022-08-11T05:40:37.079Z,99675.53
2022-08-11T05:44:19.817Z,99681.88
2022-08-11T05:47:07.210Z,99669.97
2022-08-11T05:50:13.656Z,99679.88
2022-08-11T05:53:21.583Z,99684.69
2022-08-11T05:56:17.813Z,99673.16
2022-08-11T05:59:03.844Z,99676.31
2022-08-11T06:01:50.160Z,99678.31
2022-08-11T06:04:36.133Z,99680.28
2022-08-11T06:07:30.598Z,99682.66
2022-08-11T06:10:40.835Z,99680.28
2022-08-11T06:13:27.521Z,99685.88
2022-08-11T06:16:15.410Z,99680.28
2022-08-11T06:19:01.478Z,99680.28
2022-08-11T06:21:48.753Z,99679.53
2022-08-11T06:24:36.338Z,99679.53
2022-08-11T06:27:23.164Z,99683.09
2022-08-11T06:30:14.034Z,99675.94
2022-08-11T06:33:01.628Z,99680.28
2022-08-11T06:35:51.839Z,99678.31
2022-08-11T06:38:56.208Z,99674.72
2022-08-11T06:42:08.985Z,99674.72
2022-08-11T06:45:14.777Z,99676.72
2022-08-11T06:48:01.937Z,99678.31
2022-08-11T06:51:14.292Z,99675.53
2022-08-11T06:54:04.271Z,99673.94
2022-08-11T06:57:29.430Z,99674.72
2022-08-11T07:00:30.194Z,99671.94
2022-08-11T07:03:20.745Z,99676.31
2022-08-11T07:06:24.247Z,99672.31
2022-08-11T07:09:37.847Z,99683.81
2022-08-11T07:12:47.786Z,99681.44
2022-08-11T07:16:10.557Z,99679.09
2022-08-11T07:19:07.150Z,99677.88
2022-08-11T07:22:13.635Z,99679.47
2022-08-11T07:25:21.685Z,99673.88
2022-08-11T07:28:47.758Z,99683.09
2022-08-11T07:31:37.331Z,99682.72
2022-08-11T07:34:28.153Z,99679.59
2022-08-11T07:37:18.330Z,99674.81
2022-08-11T07:40:04.788Z,99681.16
2022-08-11T07:42:52.414Z,99680.75
2022-08-11T07:46:01.759Z,99679.94
2022-08-11T07:49:05.537Z,99682.66
2022-08-11T07:52:10.487Z,99677.88
2022-08-11T07:54:58.706Z,99673.09
2022-08-11T07:58:15.178Z,99679.09
2022-08-11T08:01:24.257Z,99677.09
2022-08-11T08:04:37.541Z,99681.81
2022-08-11T08:07:41.935Z,99672.25
2022-08-11T08:10:47.248Z,99674.94
2022-08-11T08:13:52.921Z,99672.97
2022-08-11T08:16:58.220Z,99670.97
2022-08-11T08:19:47.488Z,99668.19
2022-08-11T08:22:38.784Z,99662.97
2022-08-11T08:25:27.257Z,99666.53
2022-08-11T08:28:16.543Z,99660.19
2022-08-11T08:31:02.628Z,99662.53
2022-08-11T08:33:48.248Z,99657.31
2022-08-11T08:36:33.990Z,99659.75
2022-08-11T08:39:21.738Z,99658.09
2022-08-11T08:42:11.864Z,99656.97
2022-08-11T08:45:05.669Z,99652.94
2022-08-11T08:48:13.324Z,99651.41
2022-08-11T08:51:23.489Z,99641.03
2022-08-11T08:54:19.789Z,99634.66
2022-08-11T08:57:07.918Z,99642.59
2022-08-11T08:59:53.361Z,99637.00
2022-08-11T09:02:39.871Z,99639.78
2022-08-11T09:05:27.304Z,99637.78
2022-08-11T09:08:12.849Z,99638.16
2022-08-11T09:11:19.118Z,99633.38
2022-08-11T09:14:08.388Z,99640.94
2022-08-11T09:16:57.572Z,99649.28
2022-08-11T09:19:43.558Z,99639.38
2022-08-11T09:23:41.281Z,99637.78
2022-08-11T09:26:30.509Z,99633.81
2022-08-11T09:29:16.755Z,99632.22
2022-08-11T09:32:02.879Z,99635.81
2022-08-11T09:34:52.155Z,99629.88
2022-08-11T09:37:59.242Z,99633.03
2022-08-11T09:40:47.489Z,99621.06
2022-08-11T09:44:04.724Z,99611.91
2022-08-11T09:46:52.436Z,99617.06
2022-08-11T09:49:44.333Z,99607.94
2022-08-11T09:52:37.925Z,99615.47
2022-08-11T09:55:24.120Z,99597.97
2022-08-11T09:58:35.193Z,99609.13
2022-08-11T10:01:29.888Z,99605.16
2022-08-11T10:04:17.787Z,99596.31
2022-08-11T10:07:10.468Z,99593.53
2022-08-11T10:10:02.534Z,99599.13
2022-08-11T10:12:51.022Z,99584.41
2022-08-11T10:15:38.427Z,99587.53
2022-08-11T10:18:49.256Z,99586.31
2022-08-11T10:22:07.294Z,99589.09
2022-08-11T10:25:30.430Z,99585.13
2022-08-11T10:28:28.399Z,99587.91
2022-08-11T10:31:57.953Z,99589.47
2022-08-11T10:34:51.265Z,99583.53
2022-08-11T10:38:05.929Z,99593.47
2022-08-11T10:41:13.537Z,99573.97
2022-08-11T10:44:02.672Z,99579.53
2022-08-11T10:47:08.570Z,99573.97
2022-08-11T10:50:13.482Z,99572.81
2022-08-11T10:53:18.671Z,99566.81
2022-08-11T10:56:25.090Z,99560.44
2022-08-11T10:59:10.765Z,99560.03
2022-08-11T11:01:58.293Z,99559.25
2022-08-11T11:04:58.548Z,99560.44
2022-08-11T11:07:50.179Z,99553.31
2022-08-11T11:10:35.764Z,99538.91
2022-08-11T11:13:41.954Z,99546.09
2022-08-11T11:16:50.270Z,99539.72
2022-08-11T11:19:39.896Z,99540.50
2022-08-11T11:22:38.417Z,99540.94
2022-08-11T11:25:23.758Z,99538.91
2022-08-11T11:28:39.497Z,99536.50
2022-08-11T11:31:42.440Z,99528.13
2022-08-11T11:34:59.846Z,99539.63
2022-08-11T11:38:00.061Z,99527.28
2022-08-11T11:41:10.632Z,99526.16
2022-08-11T11:43:57.316Z,99528.47
2022-08-11T11:46:48.384Z,99514.19
2022-08-11T11:49:39.497Z,99511.75
2022-08-11T11:52:26.084Z,99513.34
2022-08-11T11:55:11.643Z,99510.97
2022-08-11T11:58:19.059Z,99508.63
2022-08-11T12:01:17.077Z,99515.00
2022-08-11T12:04:06.136Z,99503.84
2022-08-11T12:07:11.979Z,99517.34
2022-08-11T12:09:58.512Z,99515.34
2022-08-11T12:13:04.179Z,99493.81
2022-08-11T12:16:06.124Z,99489.44
2022-08-11T12:18:59.498Z,99494.25
2022-08-11T12:22:04.392Z,99503.38
2022-08-11T12:25:08.406Z,99493.81
2022-08-11T12:27:55.541Z,99488.25
2022-08-11T12:33:35.117Z,99484.34
2022-08-11T12:36:22.811Z,99489.91
2022-08-11T12:39:23.157Z,99483.53
2022-08-11T12:42:31.663Z,99476.31
2022-08-11T12:45:28.598Z,99479.97
2022-08-11T12:48:58.486Z,99481.53
2022-08-11T12:52:11.572Z,99476.38
2022-08-11T12:55:13.663Z,99481.19
2022-08-11T12:58:20.042Z,99474.38
2022-08-11T13:01:24.077Z,99472.72
2022-08-11T13:04:28.324Z,99458.44
2022-08-11T13:07:15.870Z,99463.59
2022-08-11T13:10:05.264Z,99464.81
2022-08-11T13:12:50.699Z,99464.00
2022-08-11T13:15:37.976Z,99453.66
2022-08-11T13:18:23.954Z,99449.28
2022-08-11T13:21:20.054Z,99444.94
2022-08-11T13:24:06.358Z,99442.50
2022-08-11T13:26:52.850Z,99441.69
2022-08-11T13:29:41.657Z,99435.34
2022-08-11T13:32:28.249Z,99452.06
2022-08-11T13:35:17.623Z,99440.94
2022-08-11T13:38:19.058Z,99431.34
2022-08-11T13:41:28.793Z,99433.34
2022-08-11T13:44:21.553Z,99416.63
2022-08-11T13:47:13.708Z,99417.84
2022-08-11T13:49:59.129Z,99415.84
2022-08-11T13:52:48.997Z,99418.63
2022-08-11T13:55:51.357Z,99412.28
2022-08-11T13:58:39.961Z,99405.91
2022-08-11T14:02:23.020Z,99409.47
2022-08-11T14:04:41.456Z,99403.47
2022-08-11T14:07:35.634Z,99405.03
2022-08-11T14:10:24.938Z,99404.69
2022-08-11T14:13:42.706Z,99405.91
2022-08-11T14:16:39.602Z,99408.25
2022-08-11T14:19:26.715Z,99396.31
2022-08-11T14:22:15.633Z,99391.53
2022-08-11T14:25:02.430Z,99397.91
2022-08-11T14:28:42.074Z,99397.91
2022-08-11T14:31:01.157Z,99388.72
2022-08-11T14:34:00.575Z,99378.38
2022-08-11T14:36:53.809Z,99384.75
2022-08-11T14:39:44.745Z,99388.31
2022-08-11T14:42:48.641Z,99384.38
2022-08-11T14:45:55.478Z,99387.19
2022-08-11T14:48:44.151Z,99380.38
2022-08-11T14:51:30.368Z,99377.59
2022-08-11T14:54:55.583Z,99378.38
2022-08-11T14:57:55.303Z,99375.59
2022-08-11T15:00:43.059Z,99373.25
2022-08-11T15:03:33.598Z,99374.78
2022-08-11T15:06:19.362Z,99370.44
2022-08-11T15:09:09.091Z,99366.09
2022-08-11T15:12:31.287Z,99367.66
2022-08-11T15:15:38.751Z,99363.28
2022-08-11T15:18:25.143Z,99362.09
2022-08-11T15:21:29.213Z,99359.66
2022-08-11T15:24:20.349Z,99356.34
2022-08-11T15:27:29.685Z,99357.56
2022-08-11T15:30:34.945Z,99355.63
2022-08-11T15:33:40.179Z,99347.38
2022-08-11T15:36:47.880Z,99347.78
2022-08-11T15:40:07.953Z,99349.03
2022-08-11T15:43:49.867Z,99353.38
2022-08-11T15:46:40.365Z,99355.38
2022-08-11T15:50:11.925Z,99354.59
2022-08-11T15:53:03.891Z,99343.47
2022-08-11T15:55:49.439Z,99349.03
2022-08-11T15:59:40.856Z,99349.47
2022-08-11T16:02:29.870Z,99350.22
2022-08-11T16:05:45.265Z,99346.25
2022-08-11T16:08:32.538Z,99345.44
2022-08-11T16:11:18.918Z,99351.00
2022-08-11T16:14:24.964Z,99344.66
2022-08-11T16:17:12.988Z,99340.66
2022-08-11T16:19:59.895Z,99341.44
2022-08-11T16:23:02.230Z,99339.19
2022-08-11T16:27:05.449Z,99343.19
2022-08-11T16:28:59.289Z,99338.38
2022-08-11T16:32:06.037Z,99334.38
2022-08-11T16:35:55.504Z,99332.81
2022-08-11T16:38:42.001Z,99326.81
2022-08-11T16:41:49.744Z,99324.03
2022-08-11T16:44:55.020Z,99334.38
2022-08-11T16:48:03.019Z,99331.94
2022-08-11T16:50:46.991Z,99329.59
2022-08-11T16:54:00.264Z,99328.81
2022-08-11T16:56:41.610Z,99324.03
2022-08-11T16:59:31.877Z,99337.88
2022-08-11T17:02:38.520Z,99326.81
2022-08-11T17:05:53.799Z,99327.59
2022-08-11T17:09:10.821Z,99333.16
2022-08-11T17:12:18.920Z,99331.59
2022-08-11T17:15:29.564Z,99334.38
2022-08-11T17:18:37.723Z,99334.75
2022-08-11T17:22:01.364Z,99339.97
2022-08-11T17:24:51.462Z,99336.41
2022-08-11T17:27:38.836Z,99327.22
2022-08-11T17:30:47.269Z,99335.59
2022-08-11T17:33:51.902Z,99332.03
2022-08-11T17:36:41.593Z,99335.25
2022-08-11T17:39:31.733Z,99335.25
2022-08-11T17:42:36.393Z,99331.69
2022-08-11T17:45:42.556Z,99332.09
2022-08-11T17:48:34.672Z,99334.88
2022-08-11T17:51:40.456Z,99336.13
2022-08-11T17:54:44.842Z,99345.72
2022-08-11T17:57:49.450Z,99351.28
2022-08-11T18:00:35.132Z,99345.72
2022-08-11T18:03:32.693Z,99348.50
2022-08-11T18:06:19.729Z,99345.38
2022-08-11T18:09:35.998Z,99357.28
2022-08-11T18:12:39.611Z,99359.31
2022-08-11T18:15:55.580Z,99352.91
2022-08-11T18:18:59.835Z,99354.94
2022-08-11T18:22:14.623Z,99360.16
2022-08-11T18:25:45.573Z,99366.44
2022-08-11T18:28:56.768Z,99375.16
2022-08-11T18:32:06.082Z,99373.59
2022-08-11T18:35:12.905Z,99376.81
2022-08-11T18:38:20.743Z,99376.03
2022-08-11T18:41:27.325Z,99383.16
2022-08-11T18:44:34.067Z,99380.78
2022-08-11T18:47:41.045Z,99382.81
2022-08-11T18:50:47.251Z,99384.81
2022-08-11T18:54:05.811Z,99384.81
2022-08-11T18:57:10.113Z,99386.81
2022-08-11T19:00:17.863Z,99386.81
2022-08-11T19:03:24.199Z,99388.38
2022-08-11T19:06:38.875Z,99386.81
2022-08-11T19:09:47.021Z,99381.25
2022-08-11T19:12:55.747Z,99381.25
2022-08-11T19:16:01.758Z,99376.88
2022-08-11T19:19:11.548Z,99379.66
2022-08-11T19:22:16.474Z,99382.44
2022-08-11T19:25:25.546Z,99386.81
2022-08-11T19:28:30.784Z,99384.03
2022-08-11T19:31:35.678Z,99386.38
2022-08-11T19:34:43.606Z,99391.94
2022-08-11T19:37:48.528Z,99389.59
2022-08-11T19:40:56.011Z,99389.59
2022-08-11T19:44:02.835Z,99397.97
2022-08-11T19:47:09.118Z,99388.03
2022-08-11T19:50:17.594Z,99396.75
2022-08-11T19:53:26.126Z,99397.16
2022-08-11T19:56:31.372Z,99395.19
2022-08-11T19:59:36.568Z,99402.31
2022-08-11T20:02:40.792Z,99403.44
2022-08-11T20:05:55.456Z,99407.88
2022-08-11T20:09:06.211Z,99408.66
2022-08-11T20:12:13.716Z,99416.25
2022-08-11T20:15:19.518Z,99409.47
2022-08-11T20:18:25.452Z,99409.47
2022-08-11T20:21:31.629Z,99413.47
2022-08-11T20:24:36.512Z,99416.25
2022-08-11T20:27:41.384Z,99414.25
2022-08-11T20:30:48.163Z,99413.88
2022-08-11T20:33:57.135Z,99420.63
2022-08-11T20:37:01.480Z,99409.13
2022-08-11T20:40:06.883Z,99420.63
2022-08-11T20:44:05.153Z,99415.03
2022-08-11T20:46:38.397Z,99419.03
2022-08-11T20:49:56.593Z,99426.19
2022-08-11T20:53:02.401Z,99421.81
2022-08-11T20:56:08.443Z,99419.03
2022-08-11T20:59:18.769Z,99429.41
2022-08-11T21:02:25.659Z,99428.63
2022-08-11T21:06:09.451Z,99427.81
2022-08-11T21:08:55.098Z,99428.97
2022-08-11T21:11:59.495Z,99429.03
2022-08-11T21:15:04.873Z,99431.84
2022-08-11T21:18:11.994Z,99431.84
2022-08-11T21:21:45.781Z,99433.84
2022-08-11T21:24:52.219Z,99429.03
2022-08-11T21:27:59.129Z,99426.25
2022-08-11T21:31:04.177Z,99431.84
2022-08-11T21:34:08.939Z,99436.63
2022-08-11T21:37:12.876Z,99442.19
2022-08-11T21:40:18.614Z,99437.84
2022-08-11T21:43:24.351Z,99442.63
2022-08-11T21:46:29.216Z,99445.41
2022-08-11T21:49:40.641Z,99448.63
2022-08-11T21:52:45.373Z,99449.44
2022-08-11T21:55:49.482Z,99456.66
2022-08-11T21:58:54.370Z,99444.69
2022-08-11T22:01:58.333Z,99445.50
2022-08-11T22:05:04.044Z,99446.72
2022-08-11T22:08:08.481Z,99455.84
2022-08-11T22:11:12.735Z,99448.28
2022-08-11T22:14:16.457Z,99447.94
2022-08-11T22:17:20.329Z,99447.13
2022-08-11T22:20:25.491Z,99440.78
2022-08-11T22:23:36.290Z,99440.34
2022-08-11T22:26:42.282Z,99443.56
2022-08-11T22:29:51.530Z,99450.72
2022-08-11T22:32:55.952Z,99445.50
2022-08-11T22:36:00.794Z,99442.38
2022-08-11T22:39:06.802Z,99449.50
2022-08-11T22:42:10.642Z,99449.91
2022-08-11T22:45:14.536Z,99442.38
2022-08-11T22:48:20.630Z,99442.78
2022-08-11T22:51:25.310Z,99438.78
2022-08-11T22:54:29.675Z,99440.78
2022-08-11T22:57:34.268Z,99444.34
2022-08-11T23:00:38.167Z,99446.34
2022-08-11T23:03:43.926Z,99449.13
2022-08-11T23:06:48.788Z,99449.13
2022-08-11T23:09:53.186Z,99455.94
2022-08-11T23:12:57.608Z,99447.59
2022-08-11T23:16:03.385Z,99457.50
2022-08-11T23:19:07.808Z,99447.13
2022-08-11T23:22:13.060Z,99441.56
2022-08-11T23:25:18.295Z,99441.13
2022-08-11T23:28:24.606Z,99447.94
2022-08-11T23:31:29.947Z,99439.59
2022-08-11T23:35:04.816Z,99435.22
2022-08-11T23:38:21.413Z,99437.56
2022-08-11T23:41:25.352Z,99436.00
2022-08-11T23:44:29.012Z,99433.66
2022-08-11T23:47:34.471Z,99439.22
2022-08-11T23:50:55.013Z,99435.22
2022-08-11T23:54:00.196Z,99433.66
2022-08-11T23:57:11.573Z,99433.66
